^^
Grace C. Lehan Memorial Weather Station Historical Data
Daily Summary for April 13, 2021 Units:  Metric    English   Both
Daily Weekly Monthly Yearly
  High: Low: Average:
Temperature: 36.8 °C 23.1 °C 30.2 °C
Dew Point: 25.2 °C 21.6 °C 23.5 °C
Humidity: 93% 46.7% 69%
Wind Speed: 7.4km/h 0km/h 0.6km/h
Wind Gust: 17.7km/h - -
Wind- - West
Pressure: 1016.1 hPa 1013.1 hPa -
Precipitation: 0 mm    
 
 
Tabular Data for April 13, 2021
Time Temperature Dew Point Pressure Wind Wind Speed Wind Gust Humidity Rainfall Rate (Hourly) solar
00:09 25.1 °C 22.2 °C 1013.8 hPa Calm     84% 0 mm 0 W/m2
00:14 25.1 °C 22.4 °C 1013.8 hPa Calm     84.7% 0 mm 0 W/m2
00:19 25.1 °C 22.4 °C 1013.8 hPa Calm     85% 0 mm 0 W/m2
00:24 25.1 °C 22.4 °C 1013.8 hPa Calm     85% 0 mm 0 W/m2
00:29 25.1 °C 22.4 °C 1013.8 hPa Calm     85% 0 mm 0 W/m2
00:34 25.1 °C 22.2 °C 1013.8 hPa Calm     84.2% 0 mm 0 W/m2
00:39 25 °C 22.3 °C 1014.1 hPa Calm     84.8% 0 mm 0 W/m2
00:44 25.1 °C 22.3 °C 1014.1 hPa Calm     85% 0 mm 0 W/m2
00:49 25.1 °C 22.4 °C 1014.1 hPa Calm     85.4% 0 mm 0 W/m2
00:54 25.1 °C 22.4 °C 1014.1 hPa Calm     85.5% 0 mm 0 W/m2
00:59 25 °C 22.3 °C 1014.1 hPa Calm     85% 0 mm 0 W/m2
01:04 25 °C 22.3 °C 1014.4 hPa Calm     85.1% 0 mm 0 W/m2
01:09 25 °C 22.3 °C 1014.4 hPa Calm     85.2% 0 mm 0 W/m2
01:14 25 °C 22.3 °C 1014.4 hPa Calm     85% 0 mm 0 W/m2
01:19 24.9 °C 22.3 °C 1014.4 hPa Calm     85% 0 mm 0 W/m2
01:24 24.9 °C 22.3 °C 1014.4 hPa Calm     85% 0 mm 0 W/m2
01:29 24.9 °C 22.2 °C 1014.4 hPa Calm     85% 0 mm 0 W/m2
01:34 24.9 °C 22.2 °C 1014.4 hPa Calm     84.8% 0 mm 0 W/m2
01:39 24.9 °C 22.2 °C 1014.4 hPa Calm     84.8% 0 mm 0 W/m2
01:44 24.9 °C 22.3 °C 1014.1 hPa Calm     85% 0 mm 0 W/m2
01:49 24.9 °C 22.3 °C 1014.4 hPa Calm     85% 0 mm 0 W/m2
01:54 25 °C 22.3 °C 1014.1 hPa Calm     85% 0 mm 0 W/m2
01:59 25 °C 22.3 °C 1014.1 hPa Calm     85% 0 mm 0 W/m2
02:04 24.9 °C 22.3 °C 1014.4 hPa Calm     85% 0 mm 0 W/m2
02:09 24.9 °C 22.3 °C 1014.4 hPa Calm     85% 0 mm 0 W/m2
02:14 24.9 °C 22.3 °C 1014.4 hPa Calm     85% 0 mm 0 W/m2
02:19 24.9 °C 22.4 °C 1014.4 hPa Calm     85.8% 0 mm 0 W/m2
02:24 24.9 °C 22.4 °C 1014.4 hPa Calm     86% 0 mm 0 W/m2
02:29 24.9 °C 22.4 °C 1014.4 hPa Calm     86% 0 mm 0 W/m2
02:34 24.8 °C 22.3 °C 1014.4 hPa Calm     86.2% 0 mm 0 W/m2
02:39 24.7 °C 22.4 °C 1014.4 hPa Calm   1.6 km/h 87% 0 mm 0 W/m2
02:44 24.7 °C 22.4 °C 1014.4 hPa East 0.2 km/h 3.2 km/h 87% 0 mm 0 W/m2
02:49 24.7 °C 22.3 °C 1014.1 hPa Calm   3.2 km/h 87% 0 mm 0 W/m2
02:54 24.6 °C 22.3 °C 1014.1 hPa Calm   3.2 km/h 87% 0 mm 0 W/m2
02:59 24.6 °C 22.3 °C 1014.1 hPa Calm   3.2 km/h 87% 0 mm 0 W/m2
03:04 24.6 °C 22.3 °C 1013.8 hPa East 0.2 km/h 3.2 km/h 87% 0 mm 0 W/m2
03:09 24.6 °C 22.3 °C 1013.8 hPa East 0.2 km/h 4.8 km/h 87% 0 mm 0 W/m2
03:14 24.6 °C 22.2 °C 1013.8 hPa Calm   4.8 km/h 87% 0 mm 0 W/m2
03:19 24.5 °C 22.2 °C 1013.8 hPa Calm   4.8 km/h 87% 0 mm 0 W/m2
03:24 24.5 °C 22.2 °C 1013.8 hPa Calm   4.8 km/h 87% 0 mm 0 W/m2
03:29 24.5 °C 22.2 °C 1013.8 hPa Calm   4.8 km/h 87% 0 mm 0 W/m2
03:34 24.5 °C 22.2 °C 1013.8 hPa Calm   4.8 km/h 87.1% 0 mm 0 W/m2
03:39 24.4 °C 22.3 °C 1014.1 hPa Calm     88% 0 mm 0 W/m2
03:44 24.4 °C 22.3 °C 1014.1 hPa Calm     88% 0 mm 0 W/m2
03:49 24.4 °C 22.3 °C 1014.1 hPa Calm     88% 0 mm 0 W/m2
03:54 24.3 °C 22.2 °C 1014.1 hPa Calm     88% 0 mm 0 W/m2
03:59 24.3 °C 22.2 °C 1014.1 hPa Calm     88% 0 mm 0 W/m2
04:00 24.3 °C 22.2 °C 1014.1 hPa Calm     88% 0 mm 0 W/m2
04:09 24.2 °C 22.3 °C 1014.1 hPa Calm     89% 0 mm 0 W/m2
04:14 24.2 °C 22.3 °C 1014.1 hPa Calm     89% 0 mm 0 W/m2
04:19 24.2 °C 22.2 °C 1014.1 hPa Calm     89% 0 mm 0 W/m2
04:24 24.1 °C 22.2 °C 1014.1 hPa Calm     89% 0 mm 0 W/m2
04:29 24.1 °C 22.1 °C 1014.1 hPa Calm     89% 0 mm 0 W/m2
04:34 24.1 °C 22.1 °C 1014.1 hPa Calm     89% 0 mm 0 W/m2
04:39 24 °C 22.1 °C 1014.1 hPa Calm     89% 0 mm 0 W/m2
04:44 23.9 °C 22.1 °C 1014.1 hPa Calm     89.2% 0 mm 0 W/m2
04:49 23.9 °C 22.2 °C 1014.1 hPa Calm     90% 0 mm 0 W/m2
04:54 23.9 °C 22.2 °C 1014.1 hPa Calm     90% 0 mm 0 W/m2
04:59 23.8 °C 22.1 °C 1014.1 hPa Calm     90% 0 mm 0 W/m2
05:04 23.8 °C 22.1 °C 1014.4 hPa Calm     90% 0 mm 0 W/m2
05:09 23.8 °C 22.1 °C 1014.1 hPa Calm     90% 0 mm 0 W/m2
05:14 23.7 °C 22 °C 1014.1 hPa Calm     90% 0 mm 0 W/m2
05:19 23.7 °C 21.9 °C 1014.1 hPa Calm     90% 0 mm 0 W/m2
05:24 23.6 °C 21.9 °C 1014.1 hPa Calm   1.6 km/h 90% 0 mm 0 W/m2
05:29 23.6 °C 21.9 °C 1014.4 hPa Calm   1.6 km/h 90.3% 0 mm 0 W/m2
05:34 23.5 °C 21.9 °C 1014.4 hPa Calm   1.6 km/h 91% 0 mm 0 W/m2
05:39 23.4 °C 21.9 °C 1014.4 hPa Calm     91% 0 mm 0 W/m2
05:44 23.4 °C 21.8 °C 1014.4 hPa Calm     91% 0 mm 0 W/m2
05:49 23.3 °C 21.8 °C 1014.4 hPa Calm     91% 0 mm 0 W/m2
05:54 23.3 °C 21.7 °C 1014.4 hPa Calm     91% 0 mm 0 W/m2
05:59 23.2 °C 21.7 °C 1014.8 hPa Calm     91% 0 mm 0 W/m2
06:04 23.2 °C 21.7 °C 1014.8 hPa Calm   1.6 km/h 91% 0 mm 5 W/m2
06:09 23.2 °C 21.6 °C 1014.8 hPa Calm   1.6 km/h 91% 0 mm 7 W/m2
06:14 23.1 °C 21.7 °C 1014.8 hPa Calm   1.6 km/h 91.6% 0 mm 11 W/m2
06:19 23.1 °C 21.7 °C 1014.8 hPa Calm   1.6 km/h 92% 0 mm 14 W/m2
06:24 23.1 °C 21.7 °C 1014.8 hPa Calm   1.6 km/h 92% 0 mm 19 W/m2
06:29 23.1 °C 21.7 °C 1014.4 hPa Calm   1.6 km/h 92% 0 mm 25 W/m2
06:34 23.1 °C 21.7 °C 1014.4 hPa Calm   1.6 km/h 92% 0 mm 30 W/m2
06:39 23.1 °C 21.8 °C 1014.4 hPa Calm     92% 0 mm 33 W/m2
06:44 23.2 °C 21.8 °C 1014.8 hPa Calm     92% 0 mm 58 W/m2
06:49 23.3 °C 21.9 °C 1014.8 hPa Calm     92% 0 mm 63 W/m2
06:54 23.4 °C 22.1 °C 1014.8 hPa Calm     92.3% 0 mm 107 W/m2
06:59 23.6 °C 22.3 °C 1014.8 hPa Calm     93% 0 mm 121 W/m2
07:04 23.8 °C 22.4 °C 1014.8 hPa Calm     92% 0 mm 155 W/m2
07:09 24.1 °C 22.7 °C 1015.1 hPa Calm     91.8% 0 mm 181 W/m2
07:14 24.4 °C 22.9 °C 1014.8 hPa Calm     91.2% 0 mm 207 W/m2
07:19 24.9 °C 23.2 °C 1014.8 hPa Calm     90.1% 0 mm 188 W/m2
07:24 25.4 °C 23.2 °C 1015.1 hPa Calm     87.8% 0 mm 192 W/m2
07:29 26 °C 23.3 °C 1015.1 hPa Calm     85.3% 0 mm 202 W/m2
07:34 26.5 °C 23.4 °C 1015.1 hPa Calm     83.2% 0 mm 223 W/m2
07:39 26.9 °C 23.5 °C 1015.1 hPa Calm     81.4% 0 mm 243 W/m2
07:44 27.3 °C 23.6 °C 1015.1 hPa Calm     80.3% 0 mm 299 W/m2
07:49 27.7 °C 23.7 °C 1015.1 hPa Calm     79% 0 mm 308 W/m2
07:54 27.9 °C 23.4 °C 1015.1 hPa Calm     76.5% 0 mm 111 W/m2
07:59 28.2 °C 23.5 °C 1015.5 hPa Calm     76% 0 mm 308 W/m2
08:00 28.2 °C 23.4 °C 1015.1 hPa Calm     75% 0 mm 308 W/m2
08:09 28.5 °C 23.5 °C 1015.5 hPa Calm     74.4% 0 mm 327 W/m2
08:14 28.7 °C 23.6 °C 1015.5 hPa Calm     73.7% 0 mm 348 W/m2
08:19 28.9 °C 23.6 °C 1015.5 hPa Calm     72.7% 0 mm 360 W/m2
08:24 29.2 °C 23.7 °C 1015.5 hPa Calm     72.4% 0 mm 385 W/m2
08:29 29.4 °C 23.7 °C 1015.5 hPa Calm     71.1% 0 mm 403 W/m2
08:34 29.7 °C 23.7 °C 1015.5 hPa Calm     70.2% 0 mm 417 W/m2
08:39 30.1 °C 23.9 °C 1015.5 hPa Calm     69.6% 0 mm 431 W/m2
08:44 30.3 °C 23.8 °C 1015.5 hPa Calm     68% 0 mm 446 W/m2
08:49 30.7 °C 23.9 °C 1015.5 hPa Calm     67% 0 mm 461 W/m2
08:54 30.9 °C 23.9 °C 1015.5 hPa Calm     66.7% 0 mm 471 W/m2
08:59 31.1 °C 24.1 °C 1015.5 hPa Calm     66.2% 0 mm 489 W/m2
09:04 31.2 °C 24 °C 1015.5 hPa Calm     65.7% 0 mm 501 W/m2
09:09 31.3 °C 24.7 °C 1015.5 hPa Calm     68% 0 mm 519 W/m2
09:14 31.5 °C 24.4 °C 1015.5 hPa Calm     65.9% 0 mm 531 W/m2
09:19 31.8 °C 24.4 °C 1015.5 hPa Calm     65.3% 0 mm 545 W/m2
09:24 32.1 °C 24.6 °C 1015.5 hPa Calm     64.8% 0 mm 559 W/m2
09:29 32.2 °C 24.2 °C 1015.5 hPa Calm     63% 0 mm 566 W/m2
09:34 32.1 °C 24.6 °C 1015.5 hPa Calm     64.8% 0 mm 580 W/m2
09:39 32.2 °C 24.6 °C 1015.5 hPa Calm     64.4% 0 mm 601 W/m2
09:44 32.4 °C 24.7 °C 1015.8 hPa Calm     63.8% 0 mm 621 W/m2
09:49 32.7 °C 24.6 °C 1015.5 hPa Calm     62.6% 0 mm 636 W/m2
09:54 32.8 °C 24.5 °C 1015.8 hPa Calm     61.7% 0 mm 645 W/m2
09:59 32.9 °C 24.7 °C 1015.8 hPa Calm     61.8% 0 mm 657 W/m2
10:04 33.1 °C 24.8 °C 1015.8 hPa Calm     62% 0 mm 671 W/m2
10:09 33.1 °C 25.1 °C 1015.8 hPa Calm     62.8% 0 mm 675 W/m2
10:14 33.3 °C 25.2 °C 1015.8 hPa Calm     62.4% 0 mm 701 W/m2
10:19 33.5 °C 24.9 °C 1015.8 hPa Calm     60.8% 0 mm 714 W/m2
10:24 33.7 °C 24.9 °C 1015.8 hPa Calm     60.2% 0 mm 722 W/m2
10:29 33.8 °C 24.8 °C 1015.8 hPa Calm     59.7% 0 mm 714 W/m2
10:34 33.9 °C 25 °C 1015.8 hPa Calm     59.8% 0 mm 719 W/m2
10:39 34.1 °C 25.1 °C 1015.8 hPa Calm     59.3% 0 mm 745 W/m2
10:44 34.2 °C 24.8 °C 1015.8 hPa Calm     58% 0 mm 745 W/m2
10:49 34.1 °C 24.4 °C 1015.8 hPa Calm     57.1% 0 mm 737 W/m2
10:54 34.1 °C 24.8 °C 1015.8 hPa Calm     58.6% 0 mm 758 W/m2
10:59 34 °C 24.7 °C 1015.8 hPa Calm     58.2% 0 mm 775 W/m2
11:04 34.1 °C 25.1 °C 1015.8 hPa Calm     59.6% 0 mm 784 W/m2
11:09 34.2 °C 25.1 °C 1016.1 hPa Calm     59.1% 0 mm 793 W/m2
11:14 34.2 °C 24.3 °C 1015.8 hPa Calm     56.5% 0 mm 798 W/m2
11:19 34.1 °C 24.7 °C 1016.1 hPa Calm     58.4% 0 mm 800 W/m2
11:24 34.2 °C 24.7 °C 1015.8 hPa Calm     57.6% 0 mm 795 W/m2
11:29 34.3 °C 24.8 °C 1015.8 hPa Calm     57.7% 0 mm 780 W/m2
11:34 34.6 °C 24.8 °C 1015.8 hPa Calm     56.8% 0 mm 793 W/m2
11:39 34.9 °C 24.6 °C 1015.8 hPa Calm     55.3% 0 mm 791 W/m2
11:44 35.1 °C 24.2 °C 1015.8 hPa Calm     53.5% 0 mm 791 W/m2
11:49 35.2 °C 24.6 °C 1015.8 hPa Calm     54.2% 0 mm 823 W/m2
11:54 35.3 °C 24.6 °C 1015.8 hPa WNW 2.1 km/h 8 km/h 54.2% 0 mm 835 W/m2
11:59 35.1 °C 24.1 °C 1015.8 hPa WNW 0.2 km/h 8 km/h 52.9% 0 mm 849 W/m2
12:00 35 °C 23.7 °C 1015.8 hPa Calm   8 km/h 52% 0 mm 849 W/m2
12:09 35.2 °C 25 °C 1015.8 hPa Calm   1.6 km/h 55.8% 0 mm 858 W/m2
12:14 35.4 °C 24.6 °C 1015.8 hPa WNW 0.5 km/h 4.8 km/h 53.9% 0 mm 847 W/m2
12:19 35.5 °C 24.2 °C 1015.8 hPa WNW 0.2 km/h 4.8 km/h 52.3% 0 mm 831 W/m2
12:24 35.4 °C 24.7 °C 1015.8 hPa Calm   4.8 km/h 54.1% 0 mm 849 W/m2
12:29 35.2 °C 24.4 °C 1015.8 hPa WNW 0.2 km/h 4.8 km/h 53.7% 0 mm 865 W/m2
12:34 34.9 °C 24.4 °C 1015.8 hPa NW 0.2 km/h 4.8 km/h 54.8% 0 mm 863 W/m2
12:39 34.7 °C 24.4 °C 1015.8 hPa NW 0.2 km/h 3.2 km/h 55.3% 0 mm 867 W/m2
12:44 34.6 °C 24.5 °C 1015.8 hPa NW 2.3 km/h 6.4 km/h 55.8% 0 mm 868 W/m2
12:49 34.7 °C 24.4 °C 1015.5 hPa WNW 2.3 km/h 8 km/h 55.2% 0 mm 898 W/m2
12:54 34.9 °C 24.8 °C 1015.5 hPa WNW 0.8 km/h 8 km/h 55.8% 0 mm 907 W/m2
12:59 35.1 °C 24.7 °C 1015.5 hPa WNW 2.4 km/h 8 km/h 55.3% 0 mm 909 W/m2
13:04 35.3 °C 25 °C 1015.5 hPa West 1.1 km/h 8 km/h 55.4% 0 mm 932 W/m2
13:09 35.3 °C 24.7 °C 1015.5 hPa WNW 2.4 km/h 14.5 km/h 54.2% 0 mm 911 W/m2
13:14 35.2 °C 24.7 °C 1015.1 hPa WNW 4.7 km/h 14.5 km/h 54.4% 0 mm 902 W/m2
13:19 35.1 °C 24.7 °C 1015.1 hPa WNW 1.1 km/h 14.5 km/h 54.8% 0 mm 882 W/m2
13:24 35.2 °C 24.4 °C 1015.1 hPa WNW 1.3 km/h 14.5 km/h 54% 0 mm 882 W/m2
13:29 35.2 °C 24.3 °C 1015.1 hPa WNW 0.6 km/h 14.5 km/h 53.6% 0 mm 884 W/m2
13:34 35.2 °C 24.1 °C 1014.8 hPa WNW 0.6 km/h 14.5 km/h 52.8% 0 mm 889 W/m2
13:39 35.2 °C 24.5 °C 1014.8 hPa West 2.4 km/h 8 km/h 53.9% 0 mm 900 W/m2
13:44 35.3 °C 24.3 °C 1014.8 hPa West 0.6 km/h 8 km/h 53.1% 0 mm 932 W/m2
13:49 35.3 °C 24.2 °C 1014.8 hPa West 2.4 km/h 8 km/h 52.9% 0 mm 881 W/m2
13:54 35.4 °C 24.1 °C 1014.8 hPa West 1.6 km/h 8 km/h 52.1% 0 mm 888 W/m2
13:59 35.6 °C 24.5 °C 1014.4 hPa WSW 3.1 km/h 11.3 km/h 53% 0 mm 888 W/m2
14:04 35.8 °C 24.6 °C 1014.4 hPa WSW 2.4 km/h 11.3 km/h 52.5% 0 mm 879 W/m2
14:09 36 °C 24.2 °C 1014.4 hPa WSW 1.4 km/h 8 km/h 50.7% 0 mm 879 W/m2
14:14 36.2 °C 24.2 °C 1014.4 hPa West 4.3 km/h 11.3 km/h 50.2% 0 mm 856 W/m2
14:19 36.3 °C 23.7 °C 1014.4 hPa WNW 2.7 km/h 11.3 km/h 48.7% 0 mm 851 W/m2
14:24 36.4 °C 23.9 °C 1014.4 hPa WNW 3.2 km/h 11.3 km/h 48.8% 0 mm 853 W/m2
14:29 36.6 °C 23.6 °C 1014.4 hPa SW 2.4 km/h 11.3 km/h 47.3% 0 mm 849 W/m2
14:34 36.7 °C 23.8 °C 1014.1 hPa West 4.8 km/h 14.5 km/h 47.6% 0 mm 837 W/m2
14:39 36.7 °C 23.6 °C 1014.1 hPa West 5.5 km/h 14.5 km/h 47% 0 mm 826 W/m2
14:44 36.6 °C 23.6 °C 1014.1 hPa WNW 4.5 km/h 14.5 km/h 47.2% 0 mm 823 W/m2
14:49 36.6 °C 23.4 °C 1014.1 hPa WSW 4.8 km/h 16.1 km/h 46.7% 0 mm 805 W/m2
14:54 36.7 °C 23.4 °C 1014.1 hPa WSW 3.1 km/h 16.1 km/h 46.7% 0 mm 800 W/m2
14:59 36.7 °C 23.7 °C 1014.1 hPa West 7.4 km/h 16.1 km/h 47.3% 0 mm 793 W/m2
15:04 36.7 °C 23.6 °C 1014.1 hPa WSW 4.8 km/h 17.7 km/h 47.2% 0 mm 784 W/m2
15:09 36.7 °C 24 °C 1014.1 hPa West 3.9 km/h 17.7 km/h 48.3% 0 mm 777 W/m2
15:14 36.8 °C 24.1 °C 1014.1 hPa WNW 3.1 km/h 17.7 km/h 48.4% 0 mm 770 W/m2
15:19 36.8 °C 23.9 °C 1014.1 hPa West 6.3 km/h 17.7 km/h 47.7% 0 mm 758 W/m2
15:24 36.8 °C 23.8 °C 1014.1 hPa SW 1.6 km/h 17.7 km/h 47.3% 0 mm 737 W/m2
15:29 36.8 °C 23.9 °C 1014.1 hPa WSW 2.7 km/h 17.7 km/h 47.9% 0 mm 724 W/m2
15:34 36.7 °C 23.8 °C 1014.1 hPa West 1.6 km/h 17.7 km/h 47.5% 0 mm 708 W/m2
15:39 36.7 °C 24 °C 1013.8 hPa West 2.7 km/h 8 km/h 48.2% 0 mm 693 W/m2
15:44 36.7 °C 23.8 °C 1013.8 hPa WSW 3.5 km/h 11.3 km/h 47.6% 0 mm 680 W/m2
15:49 36.7 °C 23.8 °C 1013.8 hPa WSW 3.9 km/h 11.3 km/h 47.9% 0 mm 668 W/m2
15:54 36.7 °C 23.7 °C 1013.8 hPa WSW 1.8 km/h 11.3 km/h 47.3% 0 mm 650 W/m2
15:59 36.7 °C 23.7 °C 1013.8 hPa WSW 3.4 km/h 11.3 km/h 47.6% 0 mm 645 W/m2
16:00 36.6 °C 23.8 °C 1013.8 hPa SW 4.8 km/h 11.3 km/h 48% 0 mm 622 W/m2
16:09 36.4 °C 23.9 °C 1013.4 hPa WSW 1.6 km/h 6.4 km/h 48.6% 0 mm 610 W/m2
16:14 36.3 °C 24.1 °C 1013.4 hPa WSW 3.2 km/h 11.3 km/h 49.6% 0 mm 519 W/m2
16:19 36.1 °C 24.1 °C 1013.4 hPa WSW 3.1 km/h 11.3 km/h 49.9% 0 mm 60 W/m2
16:24 36 °C 23.9 °C 1013.1 hPa West 1.4 km/h 11.3 km/h 49.8% 0 mm 56 W/m2
16:29 35.8 °C 24 °C 1013.1 hPa WSW 2.7 km/h 11.3 km/h 50.8% 0 mm 54 W/m2
16:34 35.7 °C 24 °C 1013.1 hPa West 0.8 km/h 11.3 km/h 51.1% 0 mm 53 W/m2
16:39 35.5 °C 23.8 °C 1013.1 hPa West 3.1 km/h 8 km/h 51.1% 0 mm 51 W/m2
16:44 35.4 °C 23.8 °C 1013.1 hPa WSW 3.2 km/h 8 km/h 51.1% 0 mm 49 W/m2
16:49 35.3 °C 23.7 °C 1013.1 hPa West 3.1 km/h 11.3 km/h 51.3% 0 mm 49 W/m2
16:54 35.2 °C 23.9 °C 1013.1 hPa West 1.4 km/h 11.3 km/h 52% 0 mm 51 W/m2
16:59 35.2 °C 23.8 °C 1013.1 hPa West 1.6 km/h 11.3 km/h 51.7% 0 mm 51 W/m2
17:04 35.2 °C 23.8 °C 1013.1 hPa West 1.1 km/h 11.3 km/h 51.9% 0 mm 47 W/m2
17:09 35.1 °C 23.7 °C 1013.1 hPa WSW 2.7 km/h 8 km/h 51.7% 0 mm 46 W/m2
17:14 35.1 °C 23.3 °C 1013.1 hPa West 1.6 km/h 8 km/h 50.6% 0 mm 44 W/m2
17:19 35.1 °C 23.7 °C 1013.4 hPa WSW 3.1 km/h 8 km/h 51.9% 0 mm 42 W/m2
17:24 35 °C 23.4 °C 1013.4 hPa West 2.3 km/h 9.7 km/h 51.3% 0 mm 42 W/m2
17:29 34.9 °C 23.4 °C 1013.4 hPa WSW 1.8 km/h 9.7 km/h 51.3% 0 mm 40 W/m2
17:34 34.9 °C 23.3 °C 1013.1 hPa WSW 1.1 km/h 9.7 km/h 51% 0 mm 40 W/m2
17:39 34.8 °C 23.3 °C 1013.1 hPa WSW 1.9 km/h 6.4 km/h 51.4% 0 mm 39 W/m2
17:44 34.8 °C 23.4 °C 1013.4 hPa WSW 1.9 km/h 8 km/h 51.7% 0 mm 39 W/m2
17:49 34.7 °C 23.4 °C 1013.4 hPa West 1.6 km/h 8 km/h 51.9% 0 mm 37 W/m2
17:54 34.6 °C 23.7 °C 1013.1 hPa WNW 0.3 km/h 8 km/h 53% 0 mm 37 W/m2
17:59 34.6 °C 23.6 °C 1013.1 hPa WNW 1.9 km/h 8 km/h 53% 0 mm 35 W/m2
18:04 34.4 °C 23.6 °C 1013.1 hPa WNW 0.8 km/h 8 km/h 53.5% 0 mm 33 W/m2
18:09 34.3 °C 23.7 °C 1013.1 hPa West 0.5 km/h 4.8 km/h 54.1% 0 mm 33 W/m2
18:14 34.3 °C 24.1 °C 1013.4 hPa West 0.5 km/h 4.8 km/h 55.5% 0 mm 32 W/m2
18:19 34.3 °C 24 °C 1013.4 hPa West 0.3 km/h 4.8 km/h 55.2% 0 mm 32 W/m2
18:24 34.2 °C 24 °C 1013.4 hPa Calm   4.8 km/h 55.4% 0 mm 30 W/m2
18:29 34.2 °C 24.2 °C 1013.4 hPa Calm   4.8 km/h 56% 0 mm 30 W/m2
18:34 34.1 °C 24.2 °C 1013.4 hPa West 1.4 km/h 6.4 km/h 56.3% 0 mm 30 W/m2
18:39 34.1 °C 24.1 °C 1013.4 hPa Calm   6.4 km/h 56.3% 0 mm 28 W/m2
18:44 33.9 °C 24 °C 1013.4 hPa Calm   6.4 km/h 56.2% 0 mm 26 W/m2
18:49 33.9 °C 24.2 °C 1013.1 hPa Calm   6.4 km/h 56.9% 0 mm 25 W/m2
18:54 33.8 °C 24.3 °C 1013.4 hPa Calm   6.4 km/h 57.6% 0 mm 23 W/m2
18:59 33.7 °C 24.3 °C 1013.4 hPa West 0.2 km/h 6.4 km/h 58% 0 mm 21 W/m2
19:04 33.6 °C 24.2 °C 1013.4 hPa Calm   6.4 km/h 58% 0 mm 19 W/m2
19:09 33.5 °C 24.3 °C 1013.4 hPa Calm     58.7% 0 mm 18 W/m2
19:14 33.4 °C 24.3 °C 1013.4 hPa Calm     59% 0 mm 16 W/m2
19:19 33.3 °C 24.4 °C 1013.4 hPa Calm     59.8% 0 mm 14 W/m2
19:24 33.1 °C 24.3 °C 1013.4 hPa Calm     60% 0 mm 11 W/m2
19:29 33 °C 24.4 °C 1013.4 hPa Calm     60.9% 0 mm 7 W/m2
19:34 32.8 °C 24.3 °C 1013.4 hPa Calm     61% 0 mm 0 W/m2
19:39 32.7 °C 24.3 °C 1013.4 hPa Calm     61.5% 0 mm 0 W/m2
19:44 32.4 °C 24.2 °C 1013.8 hPa Calm     62% 0 mm 0 W/m2
19:49 32.3 °C 24.2 °C 1013.8 hPa Calm     62.5% 0 mm 0 W/m2
19:54 32.1 °C 24.3 °C 1013.8 hPa Calm     63.5% 0 mm 0 W/m2
19:59 31.9 °C 24.4 °C 1013.8 hPa Calm     64.5% 0 mm 0 W/m2
20:09 31.6 °C 24.6 °C 1013.8 hPa Calm     66.7% 0 mm 0 W/m2
20:14 31.3 °C 24.4 °C 1013.8 hPa Calm     66.9% 0 mm 0 W/m2
20:19 31.1 °C 24.2 °C 1013.8 hPa Calm     67% 0 mm 0 W/m2
20:24 30.9 °C 24.1 °C 1013.8 hPa Calm     67% 0 mm 0 W/m2
20:29 30.8 °C 23.9 °C 1014.1 hPa Calm     67% 0 mm 0 W/m2
20:34 30.7 °C 24.1 °C 1014.1 hPa Calm     67.8% 0 mm 0 W/m2
20:39 30.6 °C 24 °C 1014.1 hPa Calm     68% 0 mm 0 W/m2
20:44 30.5 °C 24.1 °C 1014.1 hPa Calm     68.9% 0 mm 0 W/m2
20:49 30.4 °C 24.1 °C 1014.4 hPa Calm     69% 0 mm 0 W/m2
20:54 30.3 °C 24 °C 1014.4 hPa Calm     69.2% 0 mm 0 W/m2
20:59 30.2 °C 24.1 °C 1014.4 hPa Calm     70% 0 mm 0 W/m2
21:04 30 °C 24.2 °C 1014.4 hPa Calm     70.8% 0 mm 0 W/m2
21:09 29.9 °C 24.1 °C 1014.4 hPa Calm     71% 0 mm 0 W/m2
21:14 29.8 °C 24.2 °C 1014.4 hPa Calm     71.9% 0 mm 0 W/m2
21:19 29.7 °C 24.1 °C 1014.1 hPa Calm     72% 0 mm 0 W/m2
21:24 29.6 °C 24.1 °C 1014.4 hPa Calm     72.2% 0 mm 0 W/m2
21:29 29.6 °C 24.2 °C 1014.4 hPa Calm     73% 0 mm 0 W/m2
21:34 29.4 °C 24.1 °C 1014.1 hPa Calm     73% 0 mm 0 W/m2
21:39 29.3 °C 24 °C 1014.1 hPa Calm     73% 0 mm 0 W/m2
21:44 29.3 °C 23.9 °C 1014.1 hPa Calm     72.8% 0 mm 0 W/m2
21:49 29.2 °C 23.8 °C 1014.4 hPa Calm     72.8% 0 mm 0 W/m2
21:54 29.2 °C 23.8 °C 1014.4 hPa Calm     73% 0 mm 0 W/m2
21:59 29.1 °C 23.8 °C 1014.4 hPa Calm     73% 0 mm 0 W/m2
22:04 29.1 °C 23.7 °C 1014.4 hPa Calm     73% 0 mm 0 W/m2
22:09 29 °C 23.7 °C 1014.8 hPa Calm     73.3% 0 mm 0 W/m2
22:14 28.9 °C 23.8 °C 1014.8 hPa Calm     73.8% 0 mm 0 W/m2
22:19 28.8 °C 23.8 °C 1014.8 hPa Calm     74% 0 mm 0 W/m2
22:24 28.8 °C 23.7 °C 1015.1 hPa Calm     74% 0 mm 0 W/m2
22:29 28.7 °C 23.7 °C 1014.8 hPa Calm     74% 0 mm 0 W/m2
22:34 28.7 °C 23.7 °C 1015.1 hPa Calm     74.5% 0 mm 0 W/m2
22:39 28.6 °C 23.8 °C 1015.1 hPa Calm     75% 0 mm 0 W/m2
22:44 28.6 °C 23.7 °C 1014.8 hPa Calm     75% 0 mm 0 W/m2
22:49 28.5 °C 23.7 °C 1014.8 hPa Calm     75% 0 mm 0 W/m2
22:54 28.4 °C 23.6 °C 1014.8 hPa Calm     75% 0 mm 0 W/m2
22:59 28.4 °C 23.7 °C 1014.8 hPa Calm     75.6% 0 mm 0 W/m2
23:04 28.3 °C 23.7 °C 1014.8 hPa Calm     76% 0 mm 0 W/m2
23:09 28.3 °C 23.6 °C 1014.8 hPa Calm     76% 0 mm 0 W/m2
23:14 28.2 °C 23.6 °C 1014.8 hPa Calm     76% 0 mm 0 W/m2
23:19 28.1 °C 23.6 °C 1014.8 hPa Calm     76.5% 0 mm 0 W/m2
23:24 28.1 °C 23.7 °C 1014.8 hPa Calm     77% 0 mm 0 W/m2
23:29 28 °C 23.5 °C 1014.8 hPa Calm     76.7% 0 mm 0 W/m2
23:34 27.9 °C 23.6 °C 1014.8 hPa Calm     77% 0 mm 0 W/m2
23:39 27.9 °C 23.5 °C 1014.4 hPa Calm     77% 0 mm 0 W/m2
23:44 27.8 °C 23.6 °C 1014.8 hPa Calm     77.6% 0 mm 0 W/m2
23:49 27.8 °C 23.6 °C 1014.8 hPa Calm     78% 0 mm 0 W/m2
23:54 27.7 °C 23.6 °C 1014.8 hPa Calm     78% 0 mm 0 W/m2
23:59 27.7 °C 23.5 °C 1014.8 hPa Calm     78.1% 0 mm 0 W/m2
Hartford County Weather
Compliments of Weather Underground - 2 mb